createdAt,value
2018-12-11T00:04:46.217Z,100997.00
2018-12-11T00:09:48.651Z,101012.78
2018-12-11T00:14:51.053Z,101002.69
2018-12-11T00:19:53.618Z,101007.27
2018-12-11T00:24:56.020Z,100993.39
2018-12-11T00:29:58.416Z,100993.36
2018-12-11T00:35:01.058Z,100989.45
2018-12-11T00:40:04.378Z,100996.48
2018-12-11T00:45:07.051Z,100992.63
2018-12-11T00:50:09.697Z,100993.95
2018-12-11T00:55:12.234Z,100989.67
2018-12-11T01:00:14.705Z,100986.67
2018-12-11T01:05:17.138Z,100990.66
2018-12-11T01:10:19.723Z,100991.61
2018-12-11T01:15:22.085Z,100989.59
2018-12-11T01:20:24.491Z,101004.09
2018-12-11T01:25:26.866Z,101001.83
2018-12-11T01:30:29.359Z,101004.06
2018-12-11T01:35:31.765Z,101005.96
2018-12-11T01:40:34.133Z,101013.78
2018-12-11T01:45:36.854Z,101020.87
2018-12-11T01:50:39.271Z,101023.02
2018-12-11T01:55:41.690Z,101023.05
2018-12-11T02:00:44.229Z,101019.39
2018-12-11T02:05:46.599Z,101017.20
2018-12-11T02:10:49.011Z,101021.61
2018-12-11T02:15:51.382Z,101013.66
2018-12-11T02:20:53.778Z,101027.75
2018-12-11T02:25:56.267Z,101015.52
2018-12-11T02:30:58.600Z,101009.50
2018-12-11T02:36:01.268Z,101005.63
2018-12-11T02:41:03.638Z,101005.22
2018-12-11T02:46:06.033Z,101014.56
2018-12-11T02:51:08.431Z,101024.61
2018-12-11T02:56:10.758Z,101022.47
2018-12-11T03:01:13.142Z,101022.39
2018-12-11T03:06:15.562Z,101027.66
2018-12-11T03:11:17.972Z,101022.34
2018-12-11T03:16:20.551Z,101026.67
2018-12-11T03:21:22.995Z,101023.55
2018-12-11T03:26:25.441Z,101026.22
2018-12-11T03:31:27.862Z,101027.50
2018-12-11T03:36:30.347Z,101022.34
2018-12-11T03:41:32.848Z,101024.13
2018-12-11T03:46:35.275Z,101028.21
2018-12-11T03:51:37.625Z,101025.16
2018-12-11T03:56:40.154Z,101024.50
2018-12-11T04:01:42.559Z,101026.79
2018-12-11T04:06:45.791Z,101022.35
2018-12-11T04:11:48.252Z,101015.08
2018-12-11T04:16:51.419Z,101012.02
2018-12-11T04:21:54.384Z,101015.28
2018-12-11T04:26:56.858Z,101010.95
2018-12-11T04:31:59.344Z,101005.72
2018-12-11T04:37:01.775Z,101013.96
2018-12-11T04:42:05.060Z,101011.70
2018-12-11T04:47:07.550Z,101019.27
2018-12-11T04:52:10.293Z,101015.88
2018-12-11T04:57:12.664Z,101022.63
2018-12-11T05:02:15.058Z,101011.22
2018-12-11T05:07:17.485Z,101018.70
2018-12-11T05:12:19.900Z,101011.59
2018-12-11T05:17:22.245Z,101017.66
2018-12-11T05:22:26.726Z,101013.37
2018-12-11T05:27:29.119Z,101013.48
2018-12-11T05:32:31.539Z,101017.36
2018-12-11T05:37:33.957Z,101019.05
2018-12-11T05:42:36.477Z,101022.55
2018-12-11T05:47:39.125Z,101022.85
2018-12-11T05:52:41.437Z,101029.93
2018-12-11T05:57:43.864Z,101024.20
2018-12-11T06:02:46.408Z,101024.73
2018-12-11T06:07:48.744Z,101023.37
2018-12-11T06:12:51.272Z,101022.93
2018-12-11T06:17:55.503Z,101023.72
2018-12-11T06:22:58.103Z,101019.35
2018-12-11T06:28:00.514Z,101026.36
2018-12-11T06:33:03.031Z,101019.77
2018-12-11T06:38:05.556Z,101024.96
2018-12-11T06:43:07.958Z,101030.95
2018-12-11T06:48:10.642Z,101032.23
2018-12-11T06:53:12.945Z,101037.42
2018-12-11T06:58:16.083Z,101032.94
2018-12-11T07:03:18.543Z,101032.89
2018-12-11T07:08:20.956Z,101030.37
2018-12-11T07:13:23.425Z,101031.54
2018-12-11T07:18:26.754Z,101041.10
2018-12-11T07:23:29.295Z,101050.70
2018-12-11T07:28:31.611Z,101043.66
2018-12-11T07:33:35.301Z,101048.85
2018-12-11T07:38:37.821Z,101053.38
2018-12-11T07:43:40.208Z,101058.23
2018-12-11T07:48:42.605Z,101068.89
2018-12-11T07:53:44.941Z,101059.67
2018-12-11T07:58:47.326Z,101056.02
2018-12-11T08:03:49.713Z,101061.74
2018-12-11T08:08:52.026Z,101061.97
2018-12-11T08:13:54.631Z,101070.03
2018-12-11T08:18:57.325Z,101076.66
2018-12-11T08:23:59.705Z,101067.73
2018-12-11T08:29:02.778Z,101075.23
2018-12-11T08:34:05.178Z,101077.30
2018-12-11T08:39:07.512Z,101073.53
2018-12-11T08:44:09.876Z,101085.69
2018-12-11T08:49:12.259Z,101079.09
2018-12-11T08:54:14.584Z,101079.43
2018-12-11T08:59:17.003Z,101079.22
2018-12-11T09:04:19.362Z,101082.31
2018-12-11T09:09:21.697Z,101080.70
2018-12-11T09:14:24.004Z,101084.13
2018-12-11T09:19:26.367Z,101081.06
2018-12-11T09:24:28.833Z,101086.36
2018-12-11T09:29:31.168Z,101092.41
2018-12-11T09:34:33.491Z,101088.45
2018-12-11T09:39:36.057Z,101087.31
2018-12-11T09:44:38.398Z,101088.73
2018-12-11T09:49:40.756Z,101092.64
2018-12-11T09:54:43.106Z,101091.47
2018-12-11T09:59:46.139Z,101088.83
2018-12-11T10:04:48.470Z,101084.91
2018-12-11T10:09:51.091Z,101086.22
2018-12-11T10:14:53.489Z,101089.55
2018-12-11T10:19:55.942Z,101089.41
2018-12-11T10:24:58.383Z,101107.84
2018-12-11T10:30:00.694Z,101094.23
2018-12-11T10:35:03.550Z,101100.88
2018-12-11T10:40:06.426Z,101092.28
2018-12-11T10:45:09.013Z,101087.90
2018-12-11T10:50:11.674Z,101088.31
2018-12-11T10:55:14.161Z,101080.22
2018-12-11T11:00:23.060Z,101079.59
2018-12-11T11:05:25.505Z,101068.69
2018-12-11T11:10:27.972Z,101071.93
2018-12-11T11:15:30.392Z,101062.73
2018-12-11T11:20:33.203Z,101061.73
2018-12-11T11:25:35.950Z,101052.52
2018-12-11T11:30:38.450Z,101055.66
2018-12-11T11:35:40.879Z,101049.06
2018-12-11T11:40:43.362Z,101069.23
2018-12-11T11:45:45.781Z,101053.03
2018-12-11T11:50:48.451Z,101052.47
2018-12-11T11:55:50.841Z,101048.86
2018-12-11T12:00:53.437Z,101045.09
2018-12-11T12:05:57.263Z,101035.34
2018-12-11T12:10:59.794Z,101030.45
2018-12-11T12:16:02.495Z,101045.09
2018-12-11T12:21:04.969Z,101037.42
2018-12-11T12:26:07.383Z,101041.60
2018-12-11T12:31:10.240Z,101043.37
2018-12-11T12:36:13.769Z,101040.84
2018-12-11T12:41:16.116Z,101035.63
2018-12-11T12:46:18.998Z,101037.63
2018-12-11T12:51:22.231Z,101037.55
2018-12-11T12:56:25.299Z,101033.91
2018-12-11T13:01:27.717Z,101041.72
2018-12-11T13:06:30.616Z,101043.52
2018-12-11T13:11:33.163Z,101033.58
2018-12-11T13:16:37.630Z,101029.59
2018-12-11T13:21:40.133Z,101035.52
2018-12-11T13:26:42.537Z,101034.65
2018-12-11T13:31:44.995Z,101035.97
2018-12-11T13:36:47.459Z,101034.14
2018-12-11T13:41:49.843Z,101027.98
2018-12-11T13:46:52.849Z,101034.48
2018-12-11T13:51:55.421Z,101038.02
2018-12-11T13:56:58.006Z,101039.16
2018-12-11T14:02:00.350Z,101036.11
2018-12-11T14:07:03.402Z,101039.85
2018-12-11T14:12:05.815Z,101027.22
2018-12-11T14:17:08.256Z,101031.38
2018-12-11T14:22:11.653Z,101028.66
2018-12-11T14:27:14.994Z,101035.63
2018-12-11T14:32:17.396Z,101036.66
2018-12-11T14:37:19.836Z,101042.34
2018-12-11T14:42:22.325Z,101036.05
2018-12-11T14:47:25.276Z,101040.02
2018-12-11T14:52:27.589Z,101035.34
2018-12-11T14:57:31.418Z,101041.08
2018-12-11T15:07:49.560Z,101036.64
2018-12-11T15:12:52.108Z,101036.23
2018-12-11T15:17:54.584Z,101042.58
2018-12-11T15:22:57.017Z,101042.12
2018-12-11T15:27:59.460Z,101044.08
2018-12-11T15:33:01.975Z,101045.13
2018-12-11T15:38:04.279Z,101043.08
2018-12-11T15:43:06.893Z,101047.18
2018-12-11T15:48:09.280Z,101053.59
2018-12-11T15:53:11.749Z,101057.55
2018-12-11T15:58:14.238Z,101062.66
2018-12-11T16:03:17.296Z,101060.36
2018-12-11T16:08:19.717Z,101056.88
2018-12-11T16:13:22.093Z,101058.69
2018-12-11T16:18:24.447Z,101058.28
2018-12-11T16:23:26.865Z,101063.18
2018-12-11T16:28:29.213Z,101063.59
2018-12-11T16:33:32.389Z,101059.34
2018-12-11T16:38:34.993Z,101059.31
2018-12-11T16:43:39.354Z,101060.67
2018-12-11T16:48:42.043Z,101056.80
2018-12-11T16:53:44.475Z,101058.13
2018-12-11T16:58:46.828Z,101063.11
2018-12-11T17:03:49.247Z,101060.97
2018-12-11T17:08:51.533Z,101063.31
2018-12-11T17:13:53.970Z,101067.27
2018-12-11T17:18:56.329Z,101073.86
2018-12-11T17:23:58.779Z,101080.94
2018-12-11T17:29:01.115Z,101083.99
2018-12-11T17:34:03.496Z,101087.46
2018-12-11T17:39:07.145Z,101094.13
2018-12-11T17:44:09.449Z,101094.17
2018-12-11T17:49:11.822Z,101103.32
2018-12-11T17:54:14.134Z,101102.87
2018-12-11T17:59:16.563Z,101105.92
2018-12-11T18:04:19.072Z,101097.40
2018-12-11T18:09:21.510Z,101101.02
2018-12-11T18:14:23.809Z,101097.77
2018-12-11T18:19:26.305Z,101094.72
2018-12-11T18:24:28.631Z,101099.20
2018-12-11T18:29:31.359Z,101102.55
2018-12-11T18:34:38.349Z,101100.78
2018-12-11T18:39:41.016Z,101107.34
2018-12-11T18:44:43.907Z,101108.66
2018-12-11T18:49:46.273Z,101116.07
2018-12-11T18:54:48.662Z,101116.53
2018-12-11T18:59:51.250Z,101120.03
2018-12-11T19:04:53.644Z,101120.48
2018-12-11T19:09:56.095Z,101127.03
2018-12-11T19:15:04.632Z,101124.36
2018-12-11T19:20:04.494Z,101126.05
2018-12-11T19:25:09.803Z,101125.14
2018-12-11T19:30:12.779Z,101120.28
2018-12-11T19:35:15.504Z,101122.09
2018-12-11T19:40:18.244Z,101119.00
2018-12-11T19:45:20.690Z,101101.48
2018-12-11T19:50:23.275Z,101102.34
2018-12-11T19:55:26.350Z,101101.85
2018-12-11T20:00:29.785Z,101096.12
2018-12-11T20:05:32.273Z,101088.98
2018-12-11T20:10:34.691Z,101088.58
2018-12-11T20:15:37.289Z,101096.28
2018-12-11T20:20:39.805Z,101096.57
2018-12-11T20:25:42.469Z,101086.47
2018-12-11T20:30:45.614Z,101090.23
2018-12-11T20:35:48.182Z,101084.95
2018-12-11T20:40:50.551Z,101088.09
2018-12-11T20:45:53.142Z,101079.42
2018-12-11T20:50:55.482Z,101092.04
2018-12-11T20:55:57.982Z,101103.87
2018-12-11T21:01:00.412Z,101099.38
2018-12-11T21:06:03.318Z,101109.55
2018-12-11T21:11:05.772Z,101106.09
2018-12-11T21:16:10.919Z,101099.13
2018-12-11T21:21:13.042Z,101105.72
2018-12-11T21:26:15.499Z,101107.91
2018-12-11T21:31:17.993Z,101111.19
2018-12-11T21:36:20.799Z,101107.47
2018-12-11T21:41:23.320Z,101116.02
2018-12-11T21:46:25.645Z,101116.92
2018-12-11T21:51:28.131Z,101117.47
2018-12-11T21:56:30.563Z,101118.59
2018-12-11T22:01:33.288Z,101114.18
2018-12-11T22:06:35.817Z,101109.05
2018-12-11T22:11:39.006Z,101125.34
2018-12-11T22:16:41.389Z,101119.20
2018-12-11T22:21:43.785Z,101124.02
2018-12-11T22:26:46.200Z,101113.52
2018-12-11T22:31:49.666Z,101118.02
2018-12-11T22:36:52.889Z,101127.17
2018-12-11T22:41:55.367Z,101124.98
2018-12-11T22:46:58.402Z,101129.77
2018-12-11T22:52:00.809Z,101122.84
2018-12-11T22:57:03.305Z,101120.62
2018-12-11T23:02:06.139Z,101125.92
2018-12-11T23:07:08.474Z,101135.23
2018-12-11T23:12:10.856Z,101133.92
2018-12-11T23:17:13.446Z,101144.06
2018-12-11T23:22:15.779Z,101144.48
2018-12-11T23:27:18.234Z,101140.53
2018-12-11T23:32:20.599Z,101140.62
2018-12-11T23:37:23.289Z,101138.80
2018-12-11T23:42:25.634Z,101129.38
2018-12-11T23:47:28.174Z,101127.55
2018-12-11T23:52:30.585Z,101127.66
2018-12-11T23:57:33.045Z,101126.26
